SPJL/JUL METAR and TAF weather

Enter ICAO airport designator
Station Type Date Time Source
SPJL METAR 2019/08/22 15:00 UTC NOAA

SPJL 221500Z 06003KT CAVOK 12/M02 Q1040 RMK PP000


Station Type Date Time Source
SPJL Decoded METAR 2019/08/22 15:00 UTC NOAA

Station name not available
Aug 22, 2019 - 11:00 AM EDT / 2019.08.22 1500 UTC
Wind: from the ENE (060 degrees) at 3 MPH (3 KT):0
Visibility: greater than 7 mile(s):0
Temperature: 53 F (12 C)
Dew Point: 28 F (-2 C)
Relative Humidity: 37%
Pressure (altimeter): 30.71 in. Hg (1040 hPa)
ob: SPJL 221500Z 06003KT CAVOK 12/M02 Q1040 RMK PP000
cycle: 15

Station Type Date Time Source
SPJL TAF 2019/08/22 12:33 UTC NOAA

TAF SPJL 221120Z 2212/2312 VRB02KT CAVOK TX18/2219Z TNM02/2310Z
FM221700 08005KT CAVOK
FM222100 12012KT CAVOK
FM230000 09004KT CAVOK

Example: see airport list